Eeklo, Belgium
Current Conditions -  °F | °C
As of 9:55 PM on Tuesday 21 Oct 2014 (Local Time) from EHFS Reporting Station
Broken Clouds Broken Clouds  
Wind Chill: 54°   Ceiling: 4400
Heat Index: 54°   Visibility: 6mi
Dew Point: 39°   Wind: 36mph
Humidity: 58%   Direction: 290°WNW
Pressure: 29.8"   Gusts: 48mph
Location:  51.19°N, 3.56°E
Report Text: EHFS 211955Z AUTO 29031G42KT 260V320 9999 FEW033/// SCT038///BKN044/// 12/04 Q1009
Loading
Personal Weather Stations






























Interactive Weather Map New forecast layout! Learn more

10-Day Weather Forecast

Advertisements
Track Severe Weather on mobile